createdAt,value
2022-10-17T00:02:19.393Z,101806.91
2022-10-17T00:07:22.453Z,101795.44
2022-10-17T00:12:24.996Z,101797.19
2022-10-17T00:17:26.907Z,101804.25
2022-10-17T00:22:30.288Z,101813.97
2022-10-17T00:27:34.903Z,101813.09
2022-10-17T00:32:36.617Z,101812.16
2022-10-17T00:37:39.987Z,101807.75
2022-10-17T00:42:41.953Z,101809.56
2022-10-17T00:47:48.661Z,101814.88
2022-10-17T00:52:52.481Z,101814.88
2022-10-17T00:57:54.141Z,101806.88
2022-10-17T01:02:56.207Z,101804.25
2022-10-17T01:07:59.865Z,101790.03
2022-10-17T01:13:11.874Z,101793.56
2022-10-17T01:18:26.495Z,101795.28
2022-10-17T01:24:01.270Z,101797.88
2022-10-17T01:29:27.207Z,101788.94
2022-10-17T01:34:34.317Z,101793.28
2022-10-17T01:39:45.427Z,101798.53
2022-10-17T01:44:55.328Z,101794.03
2022-10-17T01:50:02.579Z,101798.44
2022-10-17T01:55:08.034Z,101785.94
2022-10-17T02:00:14.450Z,101783.22
2022-10-17T02:05:20.745Z,101774.38
2022-10-17T02:10:31.215Z,101769.94
2022-10-17T02:15:51.951Z,101773.47
2022-10-17T02:21:00.516Z,101777.00
2022-10-17T02:26:09.975Z,101781.53
2022-10-17T02:31:16.998Z,101772.78
2022-10-17T02:36:23.736Z,101770.22
2022-10-17T02:41:26.442Z,101764.97
2022-10-17T02:46:29.347Z,101764.94
2022-10-17T02:51:39.915Z,101758.78
2022-10-17T02:56:46.680Z,101763.28
2022-10-17T03:01:50.560Z,101772.19
2022-10-17T03:06:54.076Z,101765.16
2022-10-17T03:11:56.213Z,101757.22
2022-10-17T03:16:58.303Z,101761.69
2022-10-17T03:22:01.664Z,101766.16
2022-10-17T03:27:04.037Z,101756.41
2022-10-17T03:32:06.353Z,101747.53
2022-10-17T03:37:09.696Z,101742.22
2022-10-17T03:42:11.712Z,101744.91
2022-10-17T03:47:14.277Z,101737.84
2022-10-17T03:52:17.416Z,101729.88
2022-10-17T03:57:19.809Z,101740.47
2022-10-17T04:02:21.781Z,101744.03
2022-10-17T04:12:27.007Z,101734.22
2022-10-17T04:17:32.379Z,101729.72
2022-10-17T04:22:39.420Z,101735.03
2022-10-17T04:27:41.866Z,101734.97
2022-10-17T04:32:43.559Z,101734.00
2022-10-17T04:37:46.800Z,101734.91
2022-10-17T04:42:49.113Z,101734.88
2022-10-17T04:47:51.118Z,101736.56
2022-10-17T04:52:54.407Z,101746.28
2022-10-17T04:57:56.427Z,101747.09
2022-10-17T05:02:58.325Z,101745.31
2022-10-17T05:08:01.692Z,101739.94
2022-10-17T05:13:03.895Z,101736.41
2022-10-17T05:18:07.319Z,101735.53
2022-10-17T05:23:10.844Z,101726.66
2022-10-17T05:28:12.939Z,101738.09
2022-10-17T05:33:14.923Z,101742.50
2022-10-17T05:38:18.263Z,101744.28
2022-10-17T05:43:20.312Z,101743.41
2022-10-17T05:48:22.961Z,101752.28
2022-10-17T05:53:26.309Z,101755.88
2022-10-17T06:03:50.731Z,101765.78
2022-10-17T06:08:53.816Z,101763.38
2022-10-17T06:13:55.877Z,101775.03
2022-10-17T06:18:57.507Z,101788.38
2022-10-17T06:24:01.020Z,101786.66
2022-10-17T06:29:03.211Z,101793.69
2022-10-17T06:34:05.112Z,101799.88
2022-10-17T06:39:08.742Z,101798.94
2022-10-17T06:44:10.824Z,101790.00
2022-10-17T06:49:13.144Z,101791.72
2022-10-17T06:54:16.668Z,101794.34
2022-10-17T06:59:18.667Z,101806.66
2022-10-17T07:04:20.467Z,101808.41
2022-10-17T07:09:23.650Z,101811.03
2022-10-17T07:14:26.091Z,101816.31
2022-10-17T07:19:28.137Z,101824.28
2022-10-17T07:24:31.519Z,101826.81
2022-10-17T07:29:33.814Z,101823.09
2022-10-17T07:34:36.015Z,101828.22
2022-10-17T07:39:39.664Z,101831.50
2022-10-17T07:44:41.887Z,101826.78
2022-10-17T07:49:43.912Z,101814.88
2022-10-17T07:54:46.889Z,101828.78
2022-10-17T07:59:49.122Z,101832.69
2022-10-17T08:04:51.083Z,101832.28
2022-10-17T08:09:54.403Z,101834.19
2022-10-17T08:14:57.329Z,101830.06
2022-10-17T08:19:59.701Z,101827.22
2022-10-17T08:25:03.291Z,101825.84
2022-10-17T08:30:06.854Z,101827.88
2022-10-17T08:35:09.144Z,101828.97
2022-10-17T08:40:21.491Z,101827.38
2022-10-17T08:45:33.237Z,101818.69
2022-10-17T08:50:37.960Z,101826.06
2022-10-17T08:55:45.684Z,101824.34
2022-10-17T09:00:56.320Z,101820.78
2022-10-17T09:06:12.653Z,101836.97
2022-10-17T09:11:27.884Z,101841.81
2022-10-17T09:16:54.996Z,101837.75
2022-10-17T09:22:00.557Z,101835.13
2022-10-17T09:27:04.558Z,101828.28
2022-10-17T09:32:14.120Z,101823.72
2022-10-17T09:37:17.521Z,101806.19
2022-10-17T09:42:24.917Z,101816.69
2022-10-17T09:47:34.522Z,101810.09
2022-10-17T09:52:42.444Z,101813.38
2022-10-17T09:57:57.731Z,101807.91
2022-10-17T10:03:15.213Z,101806.63
2022-10-17T10:08:19.794Z,101811.69
2022-10-17T10:13:26.645Z,101812.94
2022-10-17T10:18:32.578Z,101825.16
2022-10-17T10:23:35.336Z,101801.84
2022-10-17T10:28:38.943Z,101817.44
2022-10-17T10:33:46.999Z,101806.31
2022-10-17T10:38:55.032Z,101802.88
2022-10-17T10:43:58.448Z,101796.16
2022-10-17T10:49:02.612Z,101804.34
2022-10-17T10:54:11.998Z,101794.28
2022-10-17T10:59:20.952Z,101784.63
2022-10-17T11:04:31.777Z,101783.81
2022-10-17T11:09:45.091Z,101776.44
2022-10-17T11:14:54.075Z,101767.16
2022-10-17T11:20:09.859Z,101758.63
2022-10-17T11:25:22.423Z,101757.56
2022-10-17T11:30:33.580Z,101751.53
2022-10-17T11:35:40.873Z,101763.97
2022-10-17T11:40:45.882Z,101764.34
2022-10-17T11:45:53.202Z,101763.19
2022-10-17T11:56:34.841Z,101756.78
2022-10-17T12:01:44.083Z,101754.19
2022-10-17T12:06:56.957Z,101753.50
2022-10-17T12:12:02.458Z,101749.56
2022-10-17T12:17:20.946Z,101757.78
2022-10-17T12:22:26.037Z,101749.16
2022-10-17T12:27:36.082Z,101738.44
2022-10-17T12:33:05.542Z,101736.34
2022-10-17T12:38:24.664Z,101732.59
2022-10-17T12:43:46.948Z,101747.00
2022-10-17T12:49:05.036Z,101742.88
2022-10-17T12:54:12.780Z,101742.94
2022-10-17T12:59:17.875Z,101730.38
2022-10-17T13:04:21.773Z,101721.91
2022-10-17T13:09:27.354Z,101724.59
2022-10-17T13:14:31.806Z,101738.03
2022-10-17T13:19:43.148Z,101733.22
2022-10-17T13:24:45.519Z,101738.28
2022-10-17T13:29:47.250Z,101738.50
2022-10-17T13:35:10.789Z,101736.09
2022-10-17T13:40:44.181Z,101738.88
2022-10-17T13:45:45.864Z,101738.75
2022-10-17T13:50:51.831Z,101744.13
2022-10-17T13:56:15.696Z,101743.56
2022-10-17T14:01:21.602Z,101740.06
2022-10-17T14:06:26.436Z,101744.22
2022-10-17T14:11:33.895Z,101746.84
2022-10-17T14:16:39.278Z,101745.25
2022-10-17T14:21:44.706Z,101742.06
2022-10-17T14:26:47.999Z,101751.00
2022-10-17T14:31:50.492Z,101745.41
2022-10-17T14:36:54.940Z,101745.81
2022-10-17T14:42:00.748Z,101741.63
2022-10-17T14:47:42.198Z,101741.38
2022-10-17T14:52:32.476Z,101751.50
2022-10-17T14:57:43.148Z,101750.09
2022-10-17T15:02:45.822Z,101754.97
2022-10-17T15:07:49.475Z,101759.81
2022-10-17T15:12:58.780Z,101754.31
2022-10-17T15:18:02.501Z,101758.47
2022-10-17T15:23:05.860Z,101771.66
2022-10-17T15:28:07.835Z,101774.22
2022-10-17T15:33:09.767Z,101768.22
2022-10-17T15:38:18.258Z,101769.69
2022-10-17T15:43:20.410Z,101760.28
2022-10-17T15:48:28.342Z,101768.03
2022-10-17T15:53:31.850Z,101771.69
2022-10-17T15:58:37.411Z,101771.13
2022-10-17T16:03:39.976Z,101768.97
2022-10-17T16:08:43.336Z,101769.03
2022-10-17T16:13:51.088Z,101769.09
2022-10-17T16:18:53.215Z,101768.88
2022-10-17T16:23:57.215Z,101774.34
2022-10-17T16:28:59.473Z,101768.00
2022-10-17T16:34:03.480Z,101787.88
2022-10-17T16:39:06.956Z,101788.84
2022-10-17T16:44:12.427Z,101779.69
2022-10-17T16:49:14.478Z,101788.09
2022-10-17T16:54:18.136Z,101795.69
2022-10-17T16:59:20.207Z,101796.03
2022-10-17T17:04:22.616Z,101803.75
2022-10-17T17:09:26.241Z,101787.31
2022-10-17T17:14:28.549Z,101787.97
2022-10-17T17:19:30.293Z,101789.19
2022-10-17T17:24:33.767Z,101800.38
2022-10-17T17:29:35.549Z,101795.97
2022-10-17T17:34:37.707Z,101803.31
2022-10-17T17:39:41.098Z,101805.06
2022-10-17T17:44:43.358Z,101810.31
2022-10-17T17:49:45.476Z,101811.16
2022-10-17T17:54:48.783Z,101812.06
2022-10-17T17:59:50.720Z,101823.00
2022-10-17T18:04:52.554Z,101832.22
2022-10-17T18:09:55.726Z,101828.16
2022-10-17T18:14:57.423Z,101824.84
2022-10-17T18:19:59.094Z,101835.13
2022-10-17T18:25:02.342Z,101840.94
2022-10-17T18:30:04.875Z,101841.38
2022-10-17T18:35:07.383Z,101832.97
2022-10-17T18:40:11.393Z,101840.63
2022-10-17T18:45:13.389Z,101844.59
2022-10-17T18:50:15.459Z,101850.28
2022-10-17T18:55:19.146Z,101861.59
2022-10-17T19:00:21.088Z,101863.72
2022-10-17T19:05:23.112Z,101876.47
2022-10-17T19:10:26.353Z,101880.19
2022-10-17T19:15:28.401Z,101886.53
2022-10-17T19:20:30.611Z,101898.34
2022-10-17T19:25:34.739Z,101893.13
2022-10-17T19:30:36.449Z,101898.25
2022-10-17T19:35:38.279Z,101893.06
2022-10-17T19:40:41.878Z,101903.28
2022-10-17T19:45:43.842Z,101893.75
2022-10-17T19:50:45.522Z,101899.34
2022-10-17T19:55:48.502Z,101899.56
2022-10-17T20:00:52.194Z,101906.19
2022-10-17T20:05:54.727Z,101907.03
2022-10-17T20:11:02.408Z,101911.56
2022-10-17T20:16:06.184Z,101915.22
2022-10-17T20:21:09.743Z,101920.66
2022-10-17T20:31:37.530Z,101926.19
2022-10-17T20:36:39.414Z,101928.97
2022-10-17T20:41:43.756Z,101930.84
2022-10-17T20:47:00.807Z,101929.22
2022-10-17T20:52:04.051Z,101945.28
2022-10-17T20:57:07.327Z,101952.47
2022-10-17T21:02:11.994Z,101957.81
2022-10-17T21:07:13.941Z,101961.34
2022-10-17T21:12:25.978Z,101968.50
2022-10-17T21:17:39.100Z,101964.13
2022-10-17T21:22:40.719Z,101975.72
2022-10-17T21:27:43.760Z,101970.44
2022-10-17T21:32:53.862Z,101966.91
2022-10-17T21:37:56.058Z,101969.66
2022-10-17T21:42:59.134Z,101981.25
2022-10-17T21:48:12.643Z,101974.19
2022-10-17T21:53:15.629Z,101981.38
2022-10-17T21:58:19.852Z,101992.06
2022-10-17T22:03:21.684Z,101997.44
2022-10-17T22:08:23.464Z,101999.22
2022-10-17T22:13:26.647Z,102012.56
2022-10-17T22:18:28.787Z,102013.44
2022-10-17T22:23:30.977Z,102008.97
2022-10-17T22:28:34.788Z,102015.19
2022-10-17T22:33:38.048Z,102023.16
2022-10-17T22:38:40.199Z,102015.19
2022-10-17T22:43:43.710Z,102023.16
2022-10-17T22:48:46.016Z,102025.88
2022-10-17T22:53:47.970Z,102019.66
2022-10-17T22:58:52.109Z,102020.53
2022-10-17T23:03:54.130Z,102017.00
2022-10-17T23:08:56.207Z,102019.66
2022-10-17T23:13:59.161Z,102021.41
2022-10-17T23:19:01.261Z,102011.59
2022-10-17T23:24:02.909Z,102028.50
2022-10-17T23:29:06.027Z,102015.97
2022-10-17T23:34:08.229Z,102029.25
2022-10-17T23:39:11.600Z,102023.00
2022-10-17T23:44:15.236Z,102032.75
2022-10-17T23:49:17.158Z,102027.34
2022-10-17T23:54:19.172Z,102026.41
2022-10-17T23:59:22.716Z,102040.56
